createdAt,value
2017-11-14T00:02:07.753Z,69.53
2017-11-14T00:04:35.293Z,45.67
2017-11-14T00:07:03.264Z,55.65
2017-11-14T00:09:30.823Z,55.35
2017-11-14T00:11:58.378Z,47.92
2017-11-14T00:14:25.954Z,50.15
2017-11-14T00:16:53.467Z,51.67
2017-11-14T00:19:20.987Z,42.15
2017-11-14T00:21:48.559Z,50.60
2017-11-14T00:24:16.175Z,41.55
2017-11-14T00:26:43.732Z,44.33
2017-11-14T00:29:11.475Z,51.33
2017-11-14T00:31:38.997Z,43.17
2017-11-14T00:34:06.519Z,68.35
2017-11-14T00:36:34.108Z,48.78
2017-11-14T00:39:01.631Z,67.25
2017-11-14T00:41:29.192Z,47.47
2017-11-14T00:43:56.953Z,56.63
2017-11-14T00:46:24.471Z,42.00
2017-11-14T00:48:51.987Z,50.08
2017-11-14T00:51:19.735Z,42.47
2017-11-14T00:53:47.294Z,40.12
2017-11-14T00:56:14.852Z,41.75
2017-11-14T00:58:41.921Z,52.00
2017-11-14T01:01:09.457Z,54.50
2017-11-14T01:03:37.032Z,41.53
2017-11-14T01:06:04.611Z,41.88
2017-11-14T01:08:32.130Z,64.00
2017-11-14T01:10:59.649Z,42.35
2017-11-14T01:13:27.355Z,44.40
2017-11-14T01:15:54.871Z,47.33
2017-11-14T01:18:22.409Z,45.33
2017-11-14T01:20:49.994Z,84.22
2017-11-14T01:23:17.515Z,57.00
2017-11-14T01:25:45.027Z,96.65
2017-11-14T01:28:12.709Z,166.27
2017-11-14T01:30:40.269Z,175.48
2017-11-14T01:33:07.829Z,118.07
2017-11-14T01:35:35.572Z,257.77
2017-11-14T01:38:03.092Z,201.00
2017-11-14T01:40:30.610Z,131.90
2017-11-14T01:42:58.183Z,163.37
2017-11-14T01:45:25.728Z,75.85
2017-11-14T01:47:53.285Z,107.85
2017-11-14T01:50:20.844Z,100.00
2017-11-14T01:55:31.615Z,80.53
2017-11-14T01:57:59.139Z,55.42
2017-11-14T02:00:38.729Z,53.35
2017-11-14T02:03:06.246Z,54.63
2017-11-14T02:05:33.768Z,39.88
2017-11-14T02:08:01.713Z,38.60
2017-11-14T02:10:29.224Z,41.53
2017-11-14T02:12:56.748Z,35.92
2017-11-14T02:15:24.493Z,38.08
2017-11-14T02:17:52.054Z,38.42
2017-11-14T02:20:19.656Z,43.92
2017-11-14T02:22:47.214Z,49.40
2017-11-14T02:25:14.731Z,55.63
2017-11-14T02:27:41.554Z,43.60
2017-11-14T02:30:09.097Z,36.22
2017-11-14T02:32:36.611Z,47.97
2017-11-14T02:35:04.131Z,44.97
2017-11-14T02:37:31.811Z,45.92
2017-11-14T02:39:59.370Z,43.10
2017-11-14T02:42:26.929Z,86.65
2017-11-14T02:44:54.540Z,94.95
2017-11-14T02:47:22.078Z,68.97
2017-11-14T02:49:49.595Z,56.78
2017-11-14T02:52:17.160Z,52.78
2017-11-14T02:54:44.680Z,42.50
2017-11-14T02:57:12.196Z,44.97
2017-11-14T02:59:39.841Z,47.30
2017-11-14T03:02:07.357Z,59.63
2017-11-14T03:04:34.905Z,39.78
2017-11-14T03:07:02.619Z,51.25
2017-11-14T03:09:30.135Z,51.10
2017-11-14T03:11:57.652Z,58.78
2017-11-14T03:14:25.216Z,53.80
2017-11-14T03:16:52.958Z,57.92
2017-11-14T03:19:20.520Z,61.05
2017-11-14T03:21:48.261Z,72.62
2017-11-14T03:24:15.810Z,69.50
2017-11-14T03:26:43.342Z,77.93
2017-11-14T03:29:11.067Z,82.18
2017-11-14T03:31:38.630Z,63.87
2017-11-14T03:34:06.186Z,70.95
2017-11-14T03:36:33.942Z,53.75
2017-11-14T03:39:01.502Z,55.42
2017-11-14T03:41:29.470Z,66.15
2017-11-14T03:43:57.281Z,72.30
2017-11-14T03:46:24.820Z,84.70
2017-11-14T03:48:52.353Z,61.58
2017-11-14T03:51:20.117Z,71.40
2017-11-14T03:53:47.635Z,62.33
2017-11-14T03:56:15.155Z,69.43
2017-11-14T03:58:42.896Z,67.62
2017-11-14T04:01:10.456Z,61.85
2017-11-14T04:03:37.975Z,67.97
2017-11-14T04:06:05.911Z,49.40
2017-11-14T04:08:33.441Z,67.97
2017-11-14T04:11:00.999Z,54.80
2017-11-14T04:13:28.756Z,67.28
2017-11-14T04:15:56.276Z,80.32
2017-11-14T04:18:23.796Z,74.97
2017-11-14T04:20:51.488Z,67.57
2017-11-14T04:23:19.009Z,94.80
2017-11-14T04:25:46.565Z,60.22
2017-11-14T04:28:14.300Z,81.40
2017-11-14T04:30:41.831Z,60.78
2017-11-14T04:33:09.353Z,59.97
2017-11-14T04:35:37.101Z,63.85
2017-11-14T04:38:04.606Z,69.05
2017-11-14T04:40:32.151Z,75.47
2017-11-14T04:42:59.985Z,82.85
2017-11-14T04:45:27.543Z,68.45
2017-11-14T04:47:55.103Z,78.25
2017-11-14T04:50:22.840Z,76.75
2017-11-14T04:52:50.360Z,77.25
2017-11-14T04:55:18.393Z,69.90
2017-11-14T04:57:46.260Z,70.37
2017-11-14T05:00:13.775Z,86.75
2017-11-14T05:02:41.291Z,68.97
2017-11-14T05:05:08.844Z,75.32
2017-11-14T05:07:36.362Z,78.80
2017-11-14T05:10:03.873Z,67.72
2017-11-14T05:12:31.463Z,65.32
2017-11-14T05:14:58.983Z,62.55
2017-11-14T05:17:26.501Z,61.88
2017-11-14T05:19:54.403Z,56.97
2017-11-14T05:22:21.960Z,59.90
2017-11-14T05:24:49.542Z,71.90
2017-11-14T05:27:17.276Z,55.80
2017-11-14T05:29:44.789Z,63.00
2017-11-14T05:32:12.320Z,65.72
2017-11-14T05:34:40.056Z,66.97
2017-11-14T05:37:07.574Z,73.30
2017-11-14T05:39:35.090Z,81.90
2017-11-14T05:42:02.837Z,76.78
2017-11-14T05:44:30.351Z,64.70
2017-11-14T05:46:57.866Z,67.50
2017-11-14T05:49:25.717Z,68.45
2017-11-14T05:51:53.279Z,58.45
2017-11-14T05:54:20.792Z,63.85
2017-11-14T05:56:48.599Z,68.00
2017-11-14T05:59:16.158Z,76.05
2017-11-14T06:01:43.717Z,67.80
2017-11-14T06:04:11.294Z,70.32
2017-11-14T06:06:38.852Z,76.50
2017-11-14T06:09:06.370Z,91.40
2017-11-14T06:11:34.272Z,70.93
2017-11-14T06:14:01.789Z,77.50
2017-11-14T06:16:29.312Z,73.65
2017-11-14T06:18:56.872Z,61.35
2017-11-14T06:21:24.387Z,62.53
2017-11-14T06:23:51.895Z,58.05
2017-11-14T06:26:19.513Z,56.28
2017-11-14T06:28:47.028Z,59.50
2017-11-14T06:31:14.836Z,72.90
2017-11-14T06:33:42.395Z,70.32
2017-11-14T06:36:09.916Z,57.05
2017-11-14T06:38:37.444Z,71.43
2017-11-14T06:41:05.255Z,67.32
2017-11-14T06:43:32.836Z,67.55
2017-11-14T06:46:00.355Z,70.32
2017-11-14T06:48:27.926Z,69.55
2017-11-14T06:50:55.435Z,60.35
2017-11-14T06:53:22.951Z,71.80
2017-11-14T06:55:50.522Z,66.97
2017-11-14T06:58:18.047Z,67.75
2017-11-14T07:00:45.574Z,97.03
2017-11-14T07:03:13.308Z,85.00
2017-11-14T07:05:40.819Z,70.50
2017-11-14T07:08:08.335Z,86.90
2017-11-14T07:10:35.883Z,67.18
2017-11-14T07:13:04.159Z,64.00
2017-11-14T07:15:31.720Z,54.47
2017-11-14T07:17:59.456Z,57.65
2017-11-14T07:20:26.976Z,64.18
2017-11-14T07:22:54.488Z,65.00
2017-11-14T07:25:23.184Z,54.08
2017-11-14T07:27:50.746Z,55.72
2017-11-14T07:30:18.302Z,59.63
2017-11-14T07:32:45.875Z,67.90
2017-11-14T07:35:13.421Z,58.60
2017-11-14T07:37:40.943Z,52.40
2017-11-14T07:40:08.844Z,54.05
2017-11-14T07:42:36.356Z,48.65
2017-11-14T07:45:03.872Z,45.85
2017-11-14T07:47:31.503Z,56.08
2017-11-14T07:49:59.023Z,40.83
2017-11-14T07:52:26.548Z,43.17
2017-11-14T07:54:54.104Z,55.88
2017-11-14T07:57:21.657Z,59.33
2017-11-14T07:59:49.258Z,41.13
2017-11-14T08:02:16.809Z,67.03
2017-11-14T08:04:44.332Z,52.97
2017-11-14T08:07:11.892Z,65.90
2017-11-14T08:09:40.372Z,58.65
2017-11-14T08:12:07.931Z,45.47
2017-11-14T08:14:35.497Z,48.90
2017-11-14T08:17:03.967Z,44.60
2017-11-14T08:19:31.576Z,41.05
2017-11-14T08:21:59.096Z,43.58
2017-11-14T08:24:26.852Z,39.50
2017-11-14T08:26:54.419Z,38.83
2017-11-14T08:29:21.948Z,40.15
2017-11-14T08:31:49.530Z,47.15
2017-11-14T08:34:17.296Z,48.58
2017-11-14T08:36:44.853Z,38.47
2017-11-14T08:39:13.138Z,45.72
2017-11-14T08:41:40.689Z,46.45
2017-11-14T08:44:10.911Z,39.75
2017-11-14T08:46:38.472Z,41.25
2017-11-14T08:49:06.027Z,40.22
2017-11-14T08:51:33.535Z,51.13
2017-11-14T08:54:01.540Z,41.45
2017-11-14T08:56:29.051Z,37.60
2017-11-14T08:58:56.572Z,46.75
2017-11-14T09:01:24.336Z,40.65
2017-11-14T09:03:51.896Z,38.38
2017-11-14T09:06:19.471Z,39.97
2017-11-14T09:08:47.064Z,38.30
2017-11-14T09:11:14.600Z,38.58
2017-11-14T09:13:42.868Z,33.30
2017-11-14T09:16:10.536Z,37.67
2017-11-14T09:18:38.051Z,32.10
2017-11-14T09:21:05.664Z,35.58
2017-11-14T09:23:33.336Z,32.05
2017-11-14T09:26:00.848Z,30.80
2017-11-14T09:28:28.406Z,29.55
2017-11-14T09:30:56.153Z,37.55
2017-11-14T09:33:23.667Z,30.88
2017-11-14T09:35:51.192Z,38.25
2017-11-14T09:38:18.819Z,32.85
2017-11-14T09:40:46.347Z,33.67
2017-11-14T09:43:13.864Z,38.05
2017-11-14T09:45:41.713Z,32.15
2017-11-14T09:48:09.287Z,35.70
2017-11-14T09:50:36.846Z,32.70
2017-11-14T09:53:04.580Z,32.28
2017-11-14T09:55:32.104Z,36.53
2017-11-14T09:57:59.631Z,32.80
2017-11-14T10:00:27.390Z,38.38
2017-11-14T10:02:54.951Z,40.05
2017-11-14T10:05:22.594Z,33.13
2017-11-14T10:07:50.354Z,32.45
2017-11-14T10:10:17.868Z,25.60
2017-11-14T10:12:45.404Z,24.60
2017-11-14T10:15:12.959Z,25.62
2017-11-14T10:17:40.488Z,29.50
2017-11-14T10:20:08.015Z,25.15
2017-11-14T10:22:35.630Z,28.98
2017-11-14T10:25:03.156Z,21.15
2017-11-14T10:27:30.718Z,23.35
2017-11-14T10:29:58.406Z,26.02
2017-11-14T10:32:25.935Z,27.05
2017-11-14T10:34:53.456Z,26.70
2017-11-14T10:37:21.163Z,32.13
2017-11-14T10:39:49.376Z,35.58
2017-11-14T10:42:16.900Z,22.95
2017-11-14T10:44:44.662Z,26.42
2017-11-14T10:47:12.176Z,21.92
2017-11-14T10:49:39.707Z,28.58
2017-11-14T10:52:07.411Z,23.73
2017-11-14T10:54:34.927Z,21.93
2017-11-14T10:57:02.478Z,21.97
2017-11-14T10:59:30.195Z,27.90
2017-11-14T11:01:57.710Z,22.17
2017-11-14T11:04:25.296Z,20.73
2017-11-14T11:06:52.847Z,22.20
2017-11-14T11:09:20.375Z,20.37
2017-11-14T11:11:47.939Z,25.67
2017-11-14T11:14:15.487Z,21.97
2017-11-14T11:16:43.004Z,29.97
2017-11-14T11:19:10.524Z,18.90
2017-11-14T11:21:38.455Z,29.93
2017-11-14T11:24:06.039Z,18.60
2017-11-14T11:26:33.688Z,24.67
2017-11-14T11:29:01.462Z,22.37
2017-11-14T11:31:29.021Z,25.60
2017-11-14T11:33:56.582Z,21.90
2017-11-14T11:36:24.143Z,21.77
2017-11-14T11:38:51.699Z,16.33
2017-11-14T11:41:19.258Z,18.93
2017-11-14T11:43:47.123Z,21.97
2017-11-14T11:46:14.651Z,25.67
2017-11-14T11:48:42.172Z,28.90
2017-11-14T11:51:09.905Z,20.00
2017-11-14T11:53:37.464Z,25.17
2017-11-14T11:56:05.035Z,26.07
2017-11-14T11:58:32.784Z,24.90
2017-11-14T12:01:00.345Z,28.07
2017-11-14T12:03:27.918Z,24.10
2017-11-14T12:05:55.567Z,28.73
2017-11-14T12:08:23.127Z,24.10
2017-11-14T12:10:50.683Z,20.60
2017-11-14T12:13:18.445Z,25.77
2017-11-14T12:15:46.006Z,23.17
2017-11-14T12:18:13.523Z,20.50
2017-11-14T12:20:41.461Z,18.70
2017-11-14T12:23:08.980Z,38.73
2017-11-14T12:25:36.549Z,29.25
2017-11-14T12:28:04.320Z,25.62
2017-11-14T12:30:31.863Z,23.38
2017-11-14T12:32:59.432Z,32.45
2017-11-14T12:35:27.296Z,25.85
2017-11-14T12:37:54.857Z,30.10
2017-11-14T12:40:22.375Z,30.67
2017-11-14T12:42:50.179Z,25.37
2017-11-14T12:45:17.739Z,28.08
2017-11-14T12:47:45.308Z,26.17
2017-11-14T12:50:12.864Z,30.58
2017-11-14T12:52:40.415Z,27.87
2017-11-14T12:55:07.975Z,33.00
2017-11-14T12:57:35.738Z,29.02
2017-11-14T13:00:03.297Z,30.05
2017-11-14T13:02:30.855Z,30.58
2017-11-14T13:04:58.620Z,30.67
2017-11-14T13:07:26.140Z,32.42
2017-11-14T13:09:53.658Z,23.90
2017-11-14T13:12:22.014Z,30.37
2017-11-14T13:14:49.575Z,30.55
2017-11-14T13:17:17.105Z,27.70
2017-11-14T13:19:44.921Z,22.90
2017-11-14T13:22:12.455Z,19.48
2017-11-14T13:24:40.013Z,23.12
2017-11-14T13:27:07.784Z,19.45
2017-11-14T13:29:35.338Z,21.45
2017-11-14T13:32:03.003Z,21.35
2017-11-14T13:34:31.323Z,29.35
2017-11-14T13:36:58.849Z,21.58
2017-11-14T13:39:26.396Z,24.05
2017-11-14T13:41:54.450Z,29.50
2017-11-14T13:44:21.974Z,29.65
2017-11-14T13:46:49.499Z,25.77
2017-11-14T13:49:17.061Z,26.75
2017-11-14T13:51:44.578Z,26.50
2017-11-14T13:54:12.114Z,25.83
2017-11-14T13:56:39.716Z,23.25
2017-11-14T13:59:07.254Z,26.62
2017-11-14T14:01:34.785Z,25.55
2017-11-14T14:04:02.473Z,23.12
2017-11-14T14:06:30.362Z,29.23
2017-11-14T14:08:57.884Z,27.87
2017-11-14T14:11:25.479Z,32.00
2017-11-14T14:13:53.040Z,26.35
2017-11-14T14:16:21.427Z,24.37
2017-11-14T14:18:48.981Z,25.70
2017-11-14T14:21:16.553Z,24.77
2017-11-14T14:23:44.076Z,25.48
2017-11-14T14:26:11.857Z,23.83
2017-11-14T14:28:39.723Z,23.42
2017-11-14T14:31:07.283Z,21.35
2017-11-14T14:33:34.844Z,27.42
2017-11-14T14:36:02.503Z,29.77
2017-11-14T14:41:21.277Z,24.70
2017-11-14T14:43:48.834Z,25.42
2017-11-14T14:46:16.394Z,33.15
2017-11-14T14:48:43.953Z,43.42
2017-11-14T14:51:11.527Z,25.83
2017-11-14T14:53:39.086Z,27.23
2017-11-14T14:56:06.942Z,26.27
2017-11-14T14:58:34.497Z,27.50
2017-11-14T15:01:02.064Z,29.08
2017-11-14T15:03:29.717Z,21.70
2017-11-14T15:05:57.232Z,24.35
2017-11-14T15:08:24.755Z,31.98
2017-11-14T15:10:52.503Z,22.75
2017-11-14T15:13:20.058Z,18.50
2017-11-14T15:15:47.614Z,25.83
2017-11-14T15:18:15.583Z,30.98
2017-11-14T15:20:43.143Z,23.83
2017-11-14T15:23:10.671Z,29.63
2017-11-14T15:25:39.132Z,28.62
2017-11-14T15:28:06.707Z,20.48
2017-11-14T15:30:34.316Z,27.95
2017-11-14T15:33:02.268Z,26.83
2017-11-14T15:35:29.807Z,26.65
2017-11-14T15:37:57.591Z,26.60
2017-11-14T15:40:25.268Z,23.02
2017-11-14T15:42:52.811Z,24.02
2017-11-14T15:45:20.375Z,26.60
2017-11-14T15:47:48.311Z,31.45
2017-11-14T15:50:15.839Z,42.83
2017-11-14T15:52:43.359Z,35.63
2017-11-14T15:55:12.042Z,40.15
2017-11-14T15:57:39.714Z,31.48
2017-11-14T16:00:07.307Z,34.60
2017-11-14T16:02:34.957Z,27.73
2017-11-14T16:05:02.506Z,25.40
2017-11-14T16:07:30.236Z,31.95
2017-11-14T16:09:58.117Z,26.77
2017-11-14T16:12:25.654Z,27.42
2017-11-14T16:14:53.230Z,39.80
2017-11-14T16:17:20.795Z,29.48
2017-11-14T16:19:48.556Z,42.15
2017-11-14T16:22:16.319Z,33.65
2017-11-14T16:24:44.081Z,33.90
2017-11-14T16:27:11.663Z,31.48
2017-11-14T16:29:39.212Z,29.27
2017-11-14T16:32:07.820Z,41.88
2017-11-14T16:34:35.655Z,35.58
2017-11-14T16:37:03.436Z,35.83
2017-11-14T16:39:31.586Z,36.25
2017-11-14T16:41:59.370Z,40.17
2017-11-14T16:44:27.108Z,31.05
2017-11-14T16:46:54.998Z,61.97
2017-11-14T16:49:22.762Z,36.53
2017-11-14T16:51:50.507Z,40.17
2017-11-14T16:54:18.993Z,32.28
2017-11-14T16:56:46.739Z,38.30
2017-11-14T16:59:14.260Z,36.08
2017-11-14T17:01:42.074Z,51.40
2017-11-14T17:04:09.692Z,29.95
2017-11-14T17:06:37.470Z,38.30
2017-11-14T17:09:05.674Z,36.85
2017-11-14T17:11:33.436Z,36.40
2017-11-14T17:14:01.303Z,29.33
2017-11-14T17:16:29.272Z,39.10
2017-11-14T17:18:57.049Z,36.10
2017-11-14T17:21:24.700Z,34.00
2017-11-14T17:23:52.871Z,43.75
2017-11-14T17:26:21.604Z,39.92
2017-11-14T17:28:49.338Z,33.05
2017-11-14T17:31:17.315Z,38.70
2017-11-14T17:33:45.333Z,37.25
2017-11-14T17:36:13.228Z,39.78
2017-11-14T17:38:53.297Z,45.78
2017-11-14T17:41:21.963Z,39.80
2017-11-14T17:43:49.831Z,45.30
2017-11-14T17:46:17.584Z,44.47
2017-11-14T17:48:45.502Z,46.80
2017-11-14T17:51:13.124Z,36.45
2017-11-14T17:53:40.988Z,38.97
2017-11-14T17:56:10.807Z,43.67
2017-11-14T17:58:39.076Z,64.28
2017-11-14T18:01:07.559Z,39.75
2017-11-14T18:03:35.543Z,44.47
2017-11-14T18:06:03.369Z,32.65
2017-11-14T18:08:31.176Z,40.78
2017-11-14T18:10:59.022Z,51.30
2017-11-14T18:13:26.972Z,51.95
2017-11-14T18:15:55.179Z,54.85
2017-11-14T18:18:23.440Z,43.65
2017-11-14T18:20:51.305Z,48.42
2017-11-14T18:23:19.377Z,41.10
2017-11-14T18:25:47.154Z,52.50
2017-11-14T18:28:14.802Z,37.50
2017-11-14T18:30:42.772Z,51.10
2017-11-14T18:33:10.638Z,42.15
2017-11-14T18:35:38.590Z,48.47
2017-11-14T18:38:06.574Z,65.57
2017-11-14T18:40:35.327Z,47.28
2017-11-14T18:43:03.795Z,38.50
2017-11-14T18:45:32.868Z,50.67
2017-11-14T18:48:00.916Z,48.05
2017-11-14T18:50:30.757Z,46.75
2017-11-14T18:52:58.690Z,54.75
2017-11-14T18:55:26.256Z,49.25
2017-11-14T18:57:53.811Z,61.47
2017-11-14T19:00:21.680Z,35.20
2017-11-14T19:02:49.281Z,45.97
2017-11-14T19:05:17.216Z,43.00
2017-11-14T19:07:45.442Z,44.88
2017-11-14T19:10:13.137Z,51.88
2017-11-14T19:12:40.797Z,47.83
2017-11-14T19:15:08.769Z,45.53
2017-11-14T19:17:36.530Z,54.00
2017-11-14T19:20:04.402Z,44.28
2017-11-14T19:22:32.358Z,39.42
2017-11-14T19:25:00.049Z,60.22
2017-11-14T19:27:27.840Z,50.05
2017-11-14T19:29:56.038Z,39.83
2017-11-14T19:32:23.830Z,42.17
2017-11-14T19:34:51.623Z,49.22
2017-11-14T19:37:19.777Z,49.38
2017-11-14T19:39:47.635Z,50.45
2017-11-14T19:42:15.568Z,62.15
2017-11-14T19:44:43.368Z,61.75
2017-11-14T19:47:11.069Z,46.10
2017-11-14T19:49:40.286Z,56.90
2017-11-14T19:52:08.309Z,52.65
2017-11-14T19:54:36.051Z,49.58
2017-11-14T19:57:03.735Z,51.00
2017-11-14T19:59:31.897Z,47.05
2017-11-14T20:01:59.763Z,55.47
2017-11-14T20:04:26.808Z,44.72
2017-11-14T20:06:55.700Z,58.45
2017-11-14T20:09:23.793Z,53.03
2017-11-14T20:11:51.417Z,55.65
2017-11-14T20:14:20.078Z,57.38
2017-11-14T20:16:47.964Z,61.15
2017-11-14T20:19:15.977Z,53.35
2017-11-14T20:21:45.675Z,55.92
2017-11-14T20:24:13.442Z,56.37
2017-11-14T20:26:41.514Z,58.20
2017-11-14T20:29:10.207Z,68.53
2017-11-14T20:31:38.168Z,52.67
2017-11-14T20:34:07.200Z,58.00
2017-11-14T20:36:35.300Z,53.33
2017-11-14T20:39:03.287Z,55.30
2017-11-14T20:41:30.950Z,45.25
2017-11-14T20:43:58.939Z,52.38
2017-11-14T20:46:27.741Z,54.60
2017-11-14T20:48:55.693Z,55.85
2017-11-14T20:51:23.848Z,46.85
2017-11-14T20:53:51.715Z,49.05
2017-11-14T20:56:19.459Z,53.30
2017-11-14T20:58:47.344Z,57.80
2017-11-14T21:01:15.213Z,54.42
2017-11-14T21:03:42.872Z,50.20
2017-11-14T21:06:11.780Z,45.40
2017-11-14T21:08:39.643Z,58.65
2017-11-14T21:11:07.888Z,54.47
2017-11-14T21:13:36.898Z,57.95
2017-11-14T21:16:04.660Z,58.65
2017-11-14T21:18:32.527Z,55.78
2017-11-14T21:21:00.701Z,51.05
2017-11-14T21:23:28.672Z,61.33
2017-11-14T21:25:56.555Z,57.62
2017-11-14T21:28:24.709Z,53.10
2017-11-14T21:30:52.298Z,48.25
2017-11-14T21:33:19.864Z,69.50
2017-11-14T21:35:47.615Z,62.10
2017-11-14T21:38:15.155Z,55.03
2017-11-14T21:40:42.687Z,55.80
2017-11-14T21:43:10.269Z,62.90
2017-11-14T21:45:38.442Z,55.08
2017-11-14T21:48:06.002Z,59.08
2017-11-14T21:50:34.072Z,41.72
2017-11-14T21:53:01.667Z,64.65
2017-11-14T21:55:29.219Z,58.50
2017-11-14T21:57:58.022Z,61.28
2017-11-14T22:00:25.641Z,62.08
2017-11-14T22:02:53.199Z,55.50
2017-11-14T22:05:20.947Z,55.72
2017-11-14T22:07:48.457Z,60.53
2017-11-14T22:10:15.978Z,63.67
2017-11-14T22:12:43.744Z,59.70
2017-11-14T22:15:13.438Z,72.10
2017-11-14T22:17:41.127Z,50.63
2017-11-14T22:20:08.878Z,56.90
2017-11-14T22:22:36.437Z,63.80
2017-11-14T22:25:03.952Z,66.10
2017-11-14T22:27:31.874Z,77.57
2017-11-14T22:29:59.408Z,66.82
2017-11-14T22:32:26.923Z,65.57
2017-11-14T22:34:54.499Z,64.62
2017-11-14T22:37:22.010Z,57.53
2017-11-14T22:39:49.559Z,59.22
2017-11-14T22:42:17.134Z,59.03
2017-11-14T22:44:44.674Z,74.70
2017-11-14T22:47:12.233Z,64.25
2017-11-14T22:49:39.998Z,53.17
2017-11-14T22:52:07.555Z,63.90
2017-11-14T22:54:35.073Z,65.78
2017-11-14T22:57:02.645Z,64.10
2017-11-14T22:59:30.159Z,58.05
2017-11-14T23:01:58.611Z,58.45
2017-11-14T23:04:26.195Z,54.92
2017-11-14T23:06:53.754Z,49.75
2017-11-14T23:09:21.289Z,58.50
2017-11-14T23:11:49.052Z,59.33
2017-11-14T23:14:16.562Z,54.35
2017-11-14T23:16:44.079Z,54.80
2017-11-14T23:19:11.654Z,46.50
2017-11-14T23:21:39.172Z,73.32
2017-11-14T23:24:06.745Z,53.55
2017-11-14T23:26:34.518Z,54.72
2017-11-14T23:29:02.171Z,56.37
2017-11-14T23:31:29.693Z,61.95
2017-11-14T23:33:57.599Z,53.35
2017-11-14T23:36:25.226Z,64.35
2017-11-14T23:38:52.737Z,57.55
2017-11-14T23:41:20.580Z,60.55
2017-11-14T23:43:48.095Z,61.05
2017-11-14T23:46:15.611Z,50.58
2017-11-14T23:48:43.176Z,62.55
2017-11-14T23:51:10.718Z,61.00
2017-11-14T23:53:38.276Z,57.62
2017-11-14T23:56:05.832Z,64.62
2017-11-14T23:58:33.394Z,66.37
